Time;durP1;ratioP1;P1;durP2;ratioP2;P2;SDS_P1;SDS_P2;PMS_P1;PMS_P2;Temp;Humidity;BMP_temperature;BMP_pressure;BME280_temperature;BME280_humidity;BME280_pressure;Samples;Min_cycle;Max_cycle;Signal;HPM_P1;HPM_P2
2023/06/20 21:31:02;;;;;;;;;18.50;18.25;;;;;;;;5063122;28;13464;-70
2023/06/20 21:33:31;;;;;;;;;14.00;13.00;;;;;;;;5066308;28;9655;-69
2023/06/20 21:35:56;;;;;;;;;14.00;14.00;;;;;;;;5066338;28;9291;-67
2023/06/20 21:38:22;;;;;;;;;16.33;13.67;;;;;;;;5030601;28;10934;-70
2023/06/20 21:40:48;;;;;;;;;14.67;11.00;;;;;;;;5008369;28;11555;-69
2023/06/20 21:43:15;;;;;;;;;12.25;12.25;;;;;;;;5042123;28;8816;-71
2023/06/20 21:45:41;;;;;;;;;12.00;12.00;;;;;;;;5042682;28;8808;-70
2023/06/20 21:48:08;;;;;;;;;12.33;11.00;;;;;;;;5041997;28;8849;-70
2023/06/20 21:50:34;;;;;;;;;12.50;10.00;;;;;;;;5062337;28;8856;-70
2023/06/20 21:53:00;;;;;;;;;14.67;12.33;;;;;;;;5061600;28;8826;-70
2023/06/20 21:55:25;;;;;;;;;12.00;11.33;;;;;;;;5062366;28;8786;-70
2023/06/20 21:57:50;;;;;;;;;12.00;11.00;;;;;;;;5062764;28;8790;-71
2023/06/20 22:00:16;;;;;;;;;11.33;11.00;;;;;;;;5064013;28;8825;-70
2023/06/20 22:02:41;;;;;;;;;14.33;14.00;;;;;;;;5064597;28;8802;-70
2023/06/20 22:05:06;;;;;;;;;13.00;11.00;;;;;;;;5063934;28;8798;-70
2023/06/20 22:07:32;;;;;;;;;16.00;13.00;;;;;;;;5047502;28;8798;-69
2023/06/20 22:09:57;;;;;;;;;11.33;11.00;;;;;;;;5063534;28;8856;-69
2023/06/20 22:12:22;;;;;;;;;15.33;10.67;;;;;;;;5036747;28;8826;-69
2023/06/20 22:14:47;;;;;;;;;13.33;12.67;;;;;;;;5025246;28;8830;-69
2023/06/20 22:17:16;;;;;;;;;15.67;12.00;;;;;;;;5041576;28;8841;-69
2023/06/20 22:19:43;;;;;;;;;11.50;11.50;;;;;;;;5038358;28;8828;-70
2023/06/20 22:22:09;;;;;;;;;14.25;11.25;;;;;;;;5045942;28;9035;-70
2023/06/20 22:24:34;;;;;;;;;10.67;10.00;;;;;;;;5046148;28;8804;-70
2023/06/20 22:26:59;;;;;;;;;15.00;11.00;;;;;;;;5045981;28;8834;-70
2023/06/20 22:29:25;;;;;;;;;12.00;11.67;;;;;;;;5053404;28;8810;-70
2023/06/20 22:31:50;;;;;;;;;10.67;10.00;;;;;;;;5065864;28;8778;-69
2023/06/20 22:34:16;;;;;;;;;13.33;12.00;;;;;;;;5065820;28;8852;-70
2023/06/20 22:36:41;;;;;;;;;13.33;12.00;;;;;;;;5065618;28;8790;-70
2023/06/20 22:39:06;;;;;;;;;16.00;15.00;;;;;;;;5065432;28;8844;-71
2023/06/20 22:41:31;;;;;;;;;14.33;10.00;;;;;;;;5056816;28;8863;-70
2023/06/20 22:43:57;;;;;;;;;15.00;13.67;;;;;;;;5051203;28;8779;-71
2023/06/20 22:46:23;;;;;;;;;10.67;10.67;;;;;;;;5052426;28;8833;-71
2023/06/20 22:48:48;;;;;;;;;12.00;10.33;;;;;;;;5047263;28;8801;-70
2023/06/20 22:51:14;;;;;;;;;12.33;10.00;;;;;;;;5032311;28;8875;-71
2023/06/20 22:53:39;;;;;;;;;12.00;11.33;;;;;;;;5032229;28;8820;-71
2023/06/20 22:56:04;;;;;;;;;15.33;13.00;;;;;;;;5032088;28;8789;-71
2023/06/20 22:58:30;;;;;;;;;17.00;14.33;;;;;;;;5032273;28;8827;-70
2023/06/20 23:00:55;;;;;;;;;10.00;10.00;;;;;;;;5032273;28;8839;-71
2023/06/20 23:03:20;;;;;;;;;14.00;11.00;;;;;;;;5032169;28;8919;-70
2023/06/20 23:05:46;;;;;;;;;10.33;9.67;;;;;;;;5032239;28;8804;-70
2023/06/20 23:08:11;;;;;;;;;13.33;9.00;;;;;;;;5031924;28;8805;-69
2023/06/20 23:10:37;;;;;;;;;17.33;15.00;;;;;;;;5014486;28;8870;-69
2023/06/20 23:13:02;;;;;;;;;12.00;12.00;;;;;;;;5031740;28;8829;-69
2023/06/20 23:15:28;;;;;;;;;11.67;10.67;;;;;;;;5014151;28;8829;-69
2023/06/20 23:17:53;;;;;;;;;12.00;11.00;;;;;;;;5031857;28;8804;-69
2023/06/20 23:20:19;;;;;;;;;12.33;11.00;;;;;;;;5049311;28;8956;-69
2023/06/20 23:22:44;;;;;;;;;10.67;9.33;;;;;;;;5051531;28;8798;-69
2023/06/20 23:25:10;;;;;;;;;11.67;11.00;;;;;;;;5051587;28;8895;-69
2023/06/20 23:27:37;;;;;;;;;11.67;11.00;;;;;;;;5051568;28;8794;-69
2023/06/20 23:30:04;;;;;;;;;10.25;10.00;;;;;;;;5051086;28;8978;-69
2023/06/20 23:32:29;;;;;;;;;11.33;11.00;;;;;;;;5051404;28;8821;-69
2023/06/20 23:34:55;;;;;;;;;11.33;11.00;;;;;;;;5051326;28;8941;-69
2023/06/20 23:37:20;;;;;;;;;12.00;10.33;;;;;;;;5047521;22;8875;-70
2023/06/20 23:39:45;;;;;;;;;11.00;9.67;;;;;;;;5011266;28;8825;-72
2023/06/20 23:42:11;;;;;;;;;14.00;10.33;;;;;;;;5011267;28;9556;-71
2023/06/20 23:44:37;;;;;;;;;11.33;11.33;;;;;;;;5005273;28;8818;-71
2023/06/20 23:47:03;;;;;;;;;10.67;10.67;;;;;;;;4991665;28;9133;-71
2023/06/20 23:49:28;;;;;;;;;10.25;10.00;;;;;;;;5004876;28;8857;-71
2023/06/20 23:51:54;;;;;;;;;11.00;9.67;;;;;;;;5014419;28;8785;-71
2023/06/20 23:54:19;;;;;;;;;9.67;9.00;;;;;;;;4993219;28;8784;-71
2023/06/20 23:56:44;;;;;;;;;10.67;9.33;;;;;;;;5011950;28;8967;-70
2023/06/20 23:59:12;;;;;;;;;12.33;9.67;;;;;;;;5011123;28;8824;-71
